sensor_id;sensor_type;location;lat;lon;timestamp;P1;durP1;ratioP1;P2;durP2;ratioP2
12425;SDS011;6277;49.824;9.562;2023-06-01T14:52:19;1.95;;;1.30;;
12425;SDS011;6277;49.824;9.562;2023-06-01T14:54:44;1.75;;;1.00;;
12425;SDS011;6277;49.824;9.562;2023-06-01T14:57:10;1.08;;;0.95;;
12425;SDS011;6277;49.824;9.562;2023-06-01T14:59:36;1.92;;;1.02;;
12425;SDS011;6277;49.824;9.562;2023-06-01T15:02:02;20.33;;;3.22;;
12425;SDS011;6277;49.824;9.562;2023-06-01T15:04:29;2.28;;;1.30;;
12425;SDS011;6277;49.824;9.562;2023-06-01T15:06:54;1.73;;;1.13;;
12425;SDS011;6277;49.824;9.562;2023-06-01T15:09:20;1.60;;;1.00;;
12425;SDS011;6277;49.824;9.562;2023-06-01T15:11:45;1.40;;;1.02;;
12425;SDS011;6277;49.824;9.562;2023-06-01T15:14:11;1.20;;;0.85;;
12425;SDS011;6277;49.824;9.562;2023-06-01T15:16:36;1.25;;;1.00;;
12425;SDS011;6277;49.824;9.562;2023-06-01T15:19:02;1.35;;;0.95;;
12425;SDS011;6277;49.824;9.562;2023-06-01T15:21:27;1.30;;;1.10;;
12425;SDS011;6277;49.824;9.562;2023-06-01T15:23:53;2.17;;;1.00;;
12425;SDS011;6277;49.824;9.562;2023-06-01T15:26:19;1.20;;;0.70;;
12425;SDS011;6277;49.824;9.562;2023-06-01T15:28:44;2.33;;;1.08;;
12425;SDS011;6277;49.824;9.562;2023-06-01T15:31:10;1.63;;;1.10;;
12425;SDS011;6277;49.824;9.562;2023-06-01T15:33:35;1.85;;;1.02;;
12425;SDS011;6277;49.824;9.562;2023-06-01T15:36:01;1.38;;;1.02;;
12425;SDS011;6277;49.824;9.562;2023-06-01T15:38:26;2.08;;;0.75;;
12425;SDS011;6277;49.824;9.562;2023-06-01T15:40:52;2.53;;;1.15;;
12425;SDS011;6277;49.824;9.562;2023-06-01T15:43:18;1.80;;;0.88;;
12425;SDS011;6277;49.824;9.562;2023-06-01T15:45:43;1.55;;;0.85;;
12425;SDS011;6277;49.824;9.562;2023-06-01T15:48:09;1.70;;;1.25;;
12425;SDS011;6277;49.824;9.562;2023-06-01T15:50:35;1.42;;;0.80;;
12425;SDS011;6277;49.824;9.562;2023-06-01T15:53:01;1.15;;;0.90;;
12425;SDS011;6277;49.824;9.562;2023-06-01T15:55:27;2.17;;;1.00;;
12425;SDS011;6277;49.824;9.562;2023-06-01T15:57:52;2.20;;;1.15;;
12425;SDS011;6277;49.824;9.562;2023-06-01T16:00:18;1.60;;;1.00;;
12425;SDS011;6277;49.824;9.562;2023-06-01T16:02:44;1.83;;;1.13;;
12425;SDS011;6277;49.824;9.562;2023-06-01T16:05:09;0.98;;;0.90;;
12425;SDS011;6277;49.824;9.562;2023-06-01T16:07:35;1.38;;;1.10;;
12425;SDS011;6277;49.824;9.562;2023-06-01T16:10:01;1.92;;;1.00;;
12425;SDS011;6277;49.824;9.562;2023-06-01T16:12:26;1.48;;;1.00;;
12425;SDS011;6277;49.824;9.562;2023-06-01T16:14:52;1.95;;;1.10;;
12425;SDS011;6277;49.824;9.562;2023-06-01T16:17:17;1.40;;;0.75;;
12425;SDS011;6277;49.824;9.562;2023-06-01T16:19:43;2.97;;;1.02;;
12425;SDS011;6277;49.824;9.562;2023-06-01T16:22:09;1.77;;;0.98;;
12425;SDS011;6277;49.824;9.562;2023-06-01T16:24:34;0.93;;;0.70;;
12425;SDS011;6277;49.824;9.562;2023-06-01T16:27:02;1.05;;;0.80;;
12425;SDS011;6277;49.824;9.562;2023-06-01T16:29:28;2.58;;;0.90;;
12425;SDS011;6277;49.824;9.562;2023-06-01T16:31:54;1.95;;;1.55;;
12425;SDS011;6277;49.824;9.562;2023-06-01T16:34:20;2.05;;;1.85;;
12425;SDS011;6277;49.824;9.562;2023-06-01T16:36:45;1.80;;;1.60;;
12425;SDS011;6277;49.824;9.562;2023-06-01T16:39:11;1.63;;;1.00;;
12425;SDS011;6277;49.824;9.562;2023-06-01T16:41:37;2.38;;;1.00;;
12425;SDS011;6277;49.824;9.562;2023-06-01T16:44:03;1.08;;;0.90;;
12425;SDS011;6277;49.824;9.562;2023-06-01T16:46:29;1.83;;;1.00;;
12425;SDS011;6277;49.824;9.562;2023-06-01T16:48:55;1.10;;;0.90;;
12425;SDS011;6277;49.824;9.562;2023-06-01T16:51:21;1.75;;;0.93;;
12425;SDS011;6277;49.824;9.562;2023-06-01T16:53:47;2.42;;;1.10;;
12425;SDS011;6277;49.824;9.562;2023-06-01T16:56:15;1.98;;;1.27;;
12425;SDS011;6277;49.824;9.562;2023-06-01T16:58:41;5.45;;;1.48;;
12425;SDS011;6277;49.824;9.562;2023-06-01T17:01:07;3.30;;;1.20;;
12425;SDS011;6277;49.824;9.562;2023-06-01T17:03:32;1.48;;;1.33;;
12425;SDS011;6277;49.824;9.562;2023-06-01T17:05:58;1.50;;;1.25;;
12425;SDS011;6277;49.824;9.562;2023-06-01T17:08:23;2.95;;;1.30;;
12425;SDS011;6277;49.824;9.562;2023-06-01T17:10:49;1.67;;;1.10;;
12425;SDS011;6277;49.824;9.562;2023-06-01T17:13:15;2.83;;;1.50;;
12425;SDS011;6277;49.824;9.562;2023-06-01T17:15:40;2.25;;;1.88;;
12425;SDS011;6277;49.824;9.562;2023-06-01T17:18:06;2.40;;;1.92;;
12425;SDS011;6277;49.824;9.562;2023-06-01T17:20:35;3.55;;;2.55;;
12425;SDS011;6277;49.824;9.562;2023-06-01T17:23:01;4.70;;;3.35;;
12425;SDS011;6277;49.824;9.562;2023-06-01T17:25:26;4.25;;;3.05;;
12425;SDS011;6277;49.824;9.562;2023-06-01T17:27:52;2.78;;;2.47;;
12425;SDS011;6277;49.824;9.562;2023-06-01T17:30:18;2.97;;;2.38;;
12425;SDS011;6277;49.824;9.562;2023-06-01T17:32:43;3.00;;;2.35;;
12425;SDS011;6277;49.824;9.562;2023-06-01T17:35:09;4.10;;;2.50;;
12425;SDS011;6277;49.824;9.562;2023-06-01T17:37:35;6.97;;;2.80;;
12425;SDS011;6277;49.824;9.562;2023-06-01T17:40:01;3.00;;;2.35;;
12425;SDS011;6277;49.824;9.562;2023-06-01T17:42:27;4.78;;;2.80;;
12425;SDS011;6277;49.824;9.562;2023-06-01T17:44:52;2.53;;;2.17;;
12425;SDS011;6277;49.824;9.562;2023-06-01T17:47:18;3.08;;;2.45;;
12425;SDS011;6277;49.824;9.562;2023-06-01T17:49:44;2.78;;;2.17;;
12425;SDS011;6277;49.824;9.562;2023-06-01T17:52:10;2.92;;;2.35;;
12425;SDS011;6277;49.824;9.562;2023-06-01T17:54:36;2.95;;;2.10;;
12425;SDS011;6277;49.824;9.562;2023-06-01T17:57:02;3.22;;;2.30;;
12425;SDS011;6277;49.824;9.562;2023-06-01T17:59:27;2.45;;;1.98;;
12425;SDS011;6277;49.824;9.562;2023-06-01T18:01:53;3.92;;;2.10;;
12425;SDS011;6277;49.824;9.562;2023-06-01T18:04:18;3.30;;;2.63;;
12425;SDS011;6277;49.824;9.562;2023-06-01T18:06:46;2.30;;;1.90;;
12425;SDS011;6277;49.824;9.562;2023-06-01T18:09:11;3.10;;;2.45;;
12425;SDS011;6277;49.824;9.562;2023-06-01T18:11:37;2.83;;;2.10;;
12425;SDS011;6277;49.824;9.562;2023-06-01T18:14:03;3.17;;;2.33;;
12425;SDS011;6277;49.824;9.562;2023-06-01T18:16:28;2.60;;;2.00;;
12425;SDS011;6277;49.824;9.562;2023-06-01T18:18:54;3.17;;;2.25;;
12425;SDS011;6277;49.824;9.562;2023-06-01T18:21:19;2.50;;;2.00;;
12425;SDS011;6277;49.824;9.562;2023-06-01T18:23:45;2.85;;;2.28;;
12425;SDS011;6277;49.824;9.562;2023-06-01T18:26:18;2.97;;;2.28;;
12425;SDS011;6277;49.824;9.562;2023-06-01T18:28:43;2.75;;;2.08;;
12425;SDS011;6277;49.824;9.562;2023-06-01T18:31:10;3.30;;;2.30;;
12425;SDS011;6277;49.824;9.562;2023-06-01T18:33:37;2.60;;;2.20;;
12425;SDS011;6277;49.824;9.562;2023-06-01T18:36:03;3.00;;;2.38;;
12425;SDS011;6277;49.824;9.562;2023-06-01T18:38:29;3.33;;;2.00;;
12425;SDS011;6277;49.824;9.562;2023-06-01T18:40:55;2.85;;;2.10;;
12425;SDS011;6277;49.824;9.562;2023-06-01T18:43:21;2.75;;;2.30;;
12425;SDS011;6277;49.824;9.562;2023-06-01T18:45:46;3.33;;;2.30;;
12425;SDS011;6277;49.824;9.562;2023-06-01T18:48:12;3.03;;;2.42;;
12425;SDS011;6277;49.824;9.562;2023-06-01T18:50:37;3.13;;;2.40;;
12425;SDS011;6277;49.824;9.562;2023-06-01T18:53:03;3.03;;;2.30;;
12425;SDS011;6277;49.824;9.562;2023-06-01T18:55:29;4.70;;;2.50;;
12425;SDS011;6277;49.824;9.562;2023-06-01T18:57:54;2.47;;;2.13;;
12425;SDS011;6277;49.824;9.562;2023-06-01T19:00:20;3.22;;;2.60;;
12425;SDS011;6277;49.824;9.562;2023-06-01T19:02:46;2.83;;;2.25;;
12425;SDS011;6277;49.824;9.562;2023-06-01T19:05:12;3.17;;;2.10;;
12425;SDS011;6277;49.824;9.562;2023-06-01T19:07:41;2.63;;;2.22;;
12425;SDS011;6277;49.824;9.562;2023-06-01T19:10:07;3.35;;;2.08;;
12425;SDS011;6277;49.824;9.562;2023-06-01T19:12:34;3.55;;;2.08;;
12425;SDS011;6277;49.824;9.562;2023-06-01T19:15:01;2.72;;;2.25;;
12425;SDS011;6277;49.824;9.562;2023-06-01T19:17:32;2.90;;;2.17;;
12425;SDS011;6277;49.824;9.562;2023-06-01T19:19:57;2.75;;;2.03;;
12425;SDS011;6277;49.824;9.562;2023-06-01T19:22:29;4.72;;;2.22;;
12425;SDS011;6277;49.824;9.562;2023-06-01T19:24:57;3.20;;;2.28;;
12425;SDS011;6277;49.824;9.562;2023-06-01T19:27:23;2.95;;;2.28;;
12425;SDS011;6277;49.824;9.562;2023-06-01T19:29:48;3.10;;;2.10;;
12425;SDS011;6277;49.824;9.562;2023-06-01T19:32:14;2.72;;;2.22;;
12425;SDS011;6277;49.824;9.562;2023-06-01T19:34:40;4.45;;;2.40;;
12425;SDS011;6277;49.824;9.562;2023-06-01T19:37:06;3.58;;;2.10;;
12425;SDS011;6277;49.824;9.562;2023-06-01T19:39:38;4.20;;;2.03;;
12425;SDS011;6277;49.824;9.562;2023-06-01T19:42:08;2.85;;;2.05;;
12425;SDS011;6277;49.824;9.562;2023-06-01T19:44:43;2.60;;;2.00;;
12425;SDS011;6277;49.824;9.562;2023-06-01T19:47:55;2.55;;;2.05;;
12425;SDS011;6277;49.824;9.562;2023-06-01T19:50:08;3.38;;;2.20;;
12425;SDS011;6277;49.824;9.562;2023-06-01T19:52:56;3.70;;;1.98;;
12425;SDS011;6277;49.824;9.562;2023-06-01T19:55:22;2.70;;;1.70;;
12425;SDS011;6277;49.824;9.562;2023-06-01T19:57:47;2.55;;;1.85;;
12425;SDS011;6277;49.824;9.562;2023-06-01T20:00:13;3.03;;;2.10;;
12425;SDS011;6277;49.824;9.562;2023-06-01T20:02:52;2.90;;;1.90;;
12425;SDS011;6277;49.824;9.562;2023-06-01T20:05:20;2.83;;;1.92;;
12425;SDS011;6277;49.824;9.562;2023-06-01T20:07:49;3.42;;;2.38;;
12425;SDS011;6277;49.824;9.562;2023-06-01T20:10:23;2.83;;;2.03;;
12425;SDS011;6277;49.824;9.562;2023-06-01T20:12:57;2.17;;;1.90;;
12425;SDS011;6277;49.824;9.562;2023-06-01T20:15:26;3.65;;;2.20;;
12425;SDS011;6277;49.824;9.562;2023-06-01T20:18:01;3.42;;;2.25;;
12425;SDS011;6277;49.824;9.562;2023-06-01T20:20:31;2.47;;;2.00;;
12425;SDS011;6277;49.824;9.562;2023-06-01T20:23:03;2.95;;;1.80;;
12425;SDS011;6277;49.824;9.562;2023-06-01T20:25:33;2.42;;;1.88;;
12425;SDS011;6277;49.824;9.562;2023-06-01T20:28:02;3.28;;;2.00;;
12425;SDS011;6277;49.824;9.562;2023-06-01T20:33:01;2.40;;;1.80;;
12425;SDS011;6277;49.824;9.562;2023-06-01T20:35:27;2.33;;;1.90;;
12425;SDS011;6277;49.824;9.562;2023-06-01T20:37:53;2.97;;;2.08;;
12425;SDS011;6277;49.824;9.562;2023-06-01T20:43:22;2.40;;;1.73;;
12425;SDS011;6277;49.824;9.562;2023-06-01T20:45:58;2.58;;;1.85;;
12425;SDS011;6277;49.824;9.562;2023-06-01T20:51:47;3.25;;;1.98;;
12425;SDS011;6277;49.824;9.562;2023-06-01T20:54:12;2.40;;;1.67;;
12425;SDS011;6277;49.824;9.562;2023-06-01T20:56:40;1.83;;;1.65;;
12425;SDS011;6277;49.824;9.562;2023-06-01T21:01:35;2.72;;;1.85;;
12425;SDS011;6277;49.824;9.562;2023-06-01T21:04:02;2.83;;;2.10;;
12425;SDS011;6277;49.824;9.562;2023-06-01T21:06:30;3.78;;;2.03;;
12425;SDS011;6277;49.824;9.562;2023-06-01T21:08:57;2.47;;;1.90;;
12425;SDS011;6277;49.824;9.562;2023-06-01T21:11:23;3.20;;;2.22;;
12425;SDS011;6277;49.824;9.562;2023-06-01T21:13:50;3.22;;;2.30;;
12425;SDS011;6277;49.824;9.562;2023-06-01T21:16:16;3.08;;;2.17;;
12425;SDS011;6277;49.824;9.562;2023-06-01T21:18:42;3.13;;;2.38;;
12425;SDS011;6277;49.824;9.562;2023-06-01T21:21:08;2.85;;;2.05;;
12425;SDS011;6277;49.824;9.562;2023-06-01T21:23:33;3.40;;;2.30;;
12425;SDS011;6277;49.824;9.562;2023-06-01T21:25:59;3.72;;;2.13;;
12425;SDS011;6277;49.824;9.562;2023-06-01T21:28:25;3.25;;;2.65;;
12425;SDS011;6277;49.824;9.562;2023-06-01T21:30:51;3.22;;;2.40;;
12425;SDS011;6277;49.824;9.562;2023-06-01T21:33:16;4.07;;;2.75;;
12425;SDS011;6277;49.824;9.562;2023-06-01T21:35:44;3.45;;;2.50;;
12425;SDS011;6277;49.824;9.562;2023-06-01T21:38:09;2.80;;;2.35;;
12425;SDS011;6277;49.824;9.562;2023-06-01T21:40:36;3.75;;;2.60;;
12425;SDS011;6277;49.824;9.562;2023-06-01T21:43:02;3.97;;;2.47;;
12425;SDS011;6277;49.824;9.562;2023-06-01T21:45:27;3.40;;;2.40;;
12425;SDS011;6277;49.824;9.562;2023-06-01T21:47:53;2.80;;;2.30;;
12425;SDS011;6277;49.824;9.562;2023-06-01T21:50:18;3.50;;;2.55;;
12425;SDS011;6277;49.824;9.562;2023-06-01T21:52:44;3.80;;;2.40;;
12425;SDS011;6277;49.824;9.562;2023-06-01T21:55:10;2.72;;;2.25;;
12425;SDS011;6277;49.824;9.562;2023-06-01T21:57:35;3.83;;;2.55;;
12425;SDS011;6277;49.824;9.562;2023-06-01T22:00:02;3.08;;;2.38;;
12425;SDS011;6277;49.824;9.562;2023-06-01T22:02:30;3.88;;;2.40;;
12425;SDS011;6277;49.824;9.562;2023-06-01T22:04:55;3.58;;;2.42;;
12425;SDS011;6277;49.824;9.562;2023-06-01T22:07:21;3.00;;;2.25;;
12425;SDS011;6277;49.824;9.562;2023-06-01T22:09:51;3.70;;;2.25;;
12425;SDS011;6277;49.824;9.562;2023-06-01T22:12:19;3.35;;;2.30;;
12425;SDS011;6277;49.824;9.562;2023-06-01T22:14:44;4.82;;;2.58;;
12425;SDS011;6277;49.824;9.562;2023-06-01T22:17:10;5.15;;;2.50;;
12425;SDS011;6277;49.824;9.562;2023-06-01T22:19:35;3.45;;;2.30;;
12425;SDS011;6277;49.824;9.562;2023-06-01T22:22:01;2.42;;;2.22;;
12425;SDS011;6277;49.824;9.562;2023-06-01T22:24:27;3.92;;;2.15;;
12425;SDS011;6277;49.824;9.562;2023-06-01T22:26:52;3.28;;;2.45;;
12425;SDS011;6277;49.824;9.562;2023-06-01T22:29:18;3.60;;;2.53;;
12425;SDS011;6277;49.824;9.562;2023-06-01T22:31:43;3.60;;;2.67;;
12425;SDS011;6277;49.824;9.562;2023-06-01T22:34:09;2.85;;;2.00;;
12425;SDS011;6277;49.824;9.562;2023-06-01T22:36:34;4.25;;;2.38;;
12425;SDS011;6277;49.824;9.562;2023-06-01T22:39:01;2.88;;;2.28;;
12425;SDS011;6277;49.824;9.562;2023-06-01T22:41:27;3.35;;;2.13;;
12425;SDS011;6277;49.824;9.562;2023-06-01T22:43:52;3.72;;;2.15;;
12425;SDS011;6277;49.824;9.562;2023-06-01T22:46:18;3.90;;;2.58;;
12425;SDS011;6277;49.824;9.562;2023-06-01T22:48:44;2.78;;;2.28;;
12425;SDS011;6277;49.824;9.562;2023-06-01T22:51:13;3.20;;;2.47;;
12425;SDS011;6277;49.824;9.562;2023-06-01T22:53:41;3.28;;;2.28;;
12425;SDS011;6277;49.824;9.562;2023-06-01T22:56:07;2.75;;;2.30;;
12425;SDS011;6277;49.824;9.562;2023-06-01T22:58:33;5.47;;;2.78;;
12425;SDS011;6277;49.824;9.562;2023-06-01T23:00:59;4.97;;;3.00;;
12425;SDS011;6277;49.824;9.562;2023-06-01T23:03:25;3.38;;;2.60;;
12425;SDS011;6277;49.824;9.562;2023-06-01T23:05:51;3.40;;;2.45;;
12425;SDS011;6277;49.824;9.562;2023-06-01T23:08:17;3.28;;;2.55;;
12425;SDS011;6277;49.824;9.562;2023-06-01T23:10:46;2.92;;;2.40;;
12425;SDS011;6277;49.824;9.562;2023-06-01T23:13:16;3.05;;;2.20;;
12425;SDS011;6277;49.824;9.562;2023-06-01T23:15:42;3.70;;;2.33;;
12425;SDS011;6277;49.824;9.562;2023-06-01T23:18:13;4.20;;;2.67;;
12425;SDS011;6277;49.824;9.562;2023-06-01T23:20:41;2.97;;;2.22;;
12425;SDS011;6277;49.824;9.562;2023-06-01T23:23:08;2.50;;;1.92;;
12425;SDS011;6277;49.824;9.562;2023-06-01T23:25:35;3.65;;;2.28;;
12425;SDS011;6277;49.824;9.562;2023-06-01T23:28:01;4.70;;;2.78;;
12425;SDS011;6277;49.824;9.562;2023-06-01T23:30:27;2.22;;;2.03;;
12425;SDS011;6277;49.824;9.562;2023-06-01T23:32:52;2.40;;;2.20;;
12425;SDS011;6277;49.824;9.562;2023-06-01T23:35:18;3.15;;;2.28;;
12425;SDS011;6277;49.824;9.562;2023-06-01T23:37:43;2.88;;;2.17;;
12425;SDS011;6277;49.824;9.562;2023-06-01T23:40:11;4.13;;;2.58;;
12425;SDS011;6277;49.824;9.562;2023-06-01T23:42:43;2.72;;;2.40;;
12425;SDS011;6277;49.824;9.562;2023-06-01T23:45:10;3.58;;;2.55;;
12425;SDS011;6277;49.824;9.562;2023-06-01T23:47:36;4.05;;;2.67;;
12425;SDS011;6277;49.824;9.562;2023-06-01T23:50:02;3.42;;;2.60;;
12425;SDS011;6277;49.824;9.562;2023-06-01T23:52:29;3.15;;;2.25;;
12425;SDS011;6277;49.824;9.562;2023-06-01T23:54:54;3.25;;;2.40;;
12425;SDS011;6277;49.824;9.562;2023-06-01T23:57:20;4.18;;;2.22;;
12425;SDS011;6277;49.824;9.562;2023-06-01T23:59:46;2.88;;;2.28;;
